Time;durP1;ratioP1;P1;durP2;ratioP2;P2;SDS_P1;SDS_P2;PMS_P1;PMS_P2;Temp;Humidity;BMP_temperature;BMP_pressure;BME280_temperature;BME280_humidity;BME280_pressure;Samples;Min_cycle;Max_cycle;Signal;HPM_P1;HPM_P2
2022/12/24 00:01:08;;;;;;;34.20;5.15;;;;;;;10.16;94.75;100581.97;5093011;28;20142;-72
2022/12/24 00:03:36;;;;;;;25.92;4.57;;;;;;;10.12;95.11;100582.81;5092979;28;20032;-72
2022/12/24 00:06:09;;;;;;;27.10;5.13;;;;;;;10.06;95.31;100581.88;5092986;28;20094;-72
2022/12/24 00:08:35;;;;;;;27.67;5.22;;;;;;;10.04;95.18;100584.50;5092809;28;20092;-72
2022/12/24 00:11:01;;;;;;;32.75;5.55;;;;;;;10.00;95.87;100585.34;5092794;28;20477;-73
2022/12/24 00:13:26;;;;;;;31.13;5.30;;;;;;;9.98;96.04;100589.75;5092939;28;20020;-72
2022/12/24 00:15:52;;;;;;;28.63;5.45;;;;;;;9.96;96.51;100589.72;5092807;28;20032;-71
2022/12/24 00:18:17;;;;;;;31.77;5.60;;;;;;;9.95;96.31;100595.00;5092763;28;20026;-72
2022/12/24 00:20:47;;;;;;;30.13;6.10;;;;;;;9.94;96.62;100598.50;5092788;28;20020;-72
2022/12/24 00:23:12;;;;;;;31.77;5.72;;;;;;;9.90;96.52;100600.22;5092776;28;20069;-72
2022/12/24 00:25:38;;;;;;;28.02;5.70;;;;;;;9.91;96.67;100604.63;5074727;28;20115;-72
2022/12/24 00:28:03;;;;;;;25.77;5.13;;;;;;;9.90;96.48;100605.50;5092784;28;20106;-72
2022/12/24 00:30:28;;;;;;;31.63;5.65;;;;;;;9.89;96.82;100613.38;5096215;28;20020;-72
2022/12/24 00:32:54;;;;;;;30.92;5.80;;;;;;;9.92;96.51;100610.78;5097100;28;20038;-72
2022/12/24 00:35:19;;;;;;;36.05;5.88;;;;;;;9.91;96.66;100616.94;5096747;28;20517;-72
2022/12/24 00:37:48;;;;;;;37.55;6.22;;;;;;;9.93;96.13;100624.00;5078554;28;20036;-72
2022/12/24 00:40:15;;;;;;;37.40;5.90;;;;;;;9.95;96.55;100624.03;5078613;28;20031;-72
2022/12/24 00:42:40;;;;;;;37.00;6.78;;;;;;;9.95;96.74;100621.38;5096497;28;20113;-72
2022/12/24 00:45:06;;;;;;;31.00;5.78;;;;;;;9.93;96.93;100634.53;5096705;28;20060;-72
2022/12/24 00:47:31;;;;;;;35.80;6.18;;;;;;;9.91;96.82;100630.13;5096410;28;20031;-72
2022/12/24 00:49:57;;;;;;;29.95;5.47;;;;;;;9.92;96.87;100634.53;5096548;28;20496;-72
2022/12/24 00:52:22;;;;;;;28.65;6.10;;;;;;;9.91;96.51;100640.69;5096267;28;20063;-72
2022/12/24 00:54:47;;;;;;;22.90;5.25;;;;;;;9.90;96.69;100658.28;5096397;28;20024;-72
2022/12/24 00:57:13;;;;;;;34.10;5.40;;;;;;;9.92;96.78;100658.28;5078043;28;20086;-72
2022/12/24 00:59:38;;;;;;;24.10;5.00;;;;;;;9.93;96.21;100658.31;5078298;28;20052;-72
2022/12/24 01:02:04;;;;;;;31.80;5.63;;;;;;;9.91;96.59;100660.06;5096177;28;20021;-74
2022/12/24 01:07:13;;;;;;;31.20;6.10;;;;;;;9.90;96.84;100667.97;5096479;28;20128;-72
2022/12/24 01:09:38;;;;;;;29.33;5.32;;;;;;;9.88;96.77;100667.94;5096030;28;20056;-72
2022/12/24 01:12:04;;;;;;;31.85;5.90;;;;;;;9.91;96.60;100675.00;5077775;28;20082;-72
2022/12/24 01:14:29;;;;;;;40.42;7.53;;;;;;;9.91;96.54;100669.72;5095979;28;20082;-72
2022/12/24 01:16:54;;;;;;;32.95;5.82;;;;;;;9.90;96.48;100676.78;5095977;28;20032;-72
2022/12/24 01:19:20;;;;;;;25.83;5.30;;;;;;;9.88;96.19;100667.94;5095907;28;20029;-72
2022/12/24 01:21:45;;;;;;;28.30;5.45;;;;;;;9.84;96.04;100663.50;5095906;28;20047;-72
2022/12/24 01:24:14;;;;;;;31.15;5.72;;;;;;;9.84;96.40;100674.03;5095916;28;20024;-72
2022/12/24 01:26:39;;;;;;;34.88;5.90;;;;;;;9.84;95.98;100676.69;5096091;28;20016;-73
2022/12/24 01:29:05;;;;;;;30.58;5.40;;;;;;;9.82;96.40;100690.75;5077645;28;20081;-73
2022/12/24 01:31:30;;;;;;;32.17;6.70;;;;;;;9.81;96.11;100691.59;5095704;28;20073;-72
2022/12/24 01:33:56;;;;;;;28.60;5.85;;;;;;;9.75;96.37;100698.56;5095397;28;20028;-73
2022/12/24 01:36:21;;;;;;;32.55;6.07;;;;;;;9.76;96.06;100700.38;5095576;28;20385;-72
2022/12/24 01:38:46;;;;;;;29.70;5.90;;;;;;;9.73;96.23;100697.69;5095555;28;20035;-72
2022/12/24 01:44:25;;;;;;;31.48;6.55;;;;;;;9.70;96.58;100699.41;5095890;28;20039;-72
2022/12/24 01:46:59;;;;;;;26.88;6.47;;;;;;;9.65;96.20;100707.25;5095394;28;20043;-72
2022/12/24 01:49:24;;;;;;;26.08;5.90;;;;;;;9.63;96.59;100706.34;5095586;28;20051;-72
2022/12/24 01:52:17;;;;;;;33.25;6.28;;;;;;;9.61;96.83;100721.28;5095140;28;20051;-72
2022/12/24 01:54:51;;;;;;;31.90;5.72;;;;;;;9.59;96.92;100715.09;5066663;28;20055;-71
2022/12/24 01:57:16;;;;;;;30.58;6.68;;;;;;;9.60;97.11;100718.63;5095433;28;20024;-72
2022/12/24 01:59:45;;;;;;;25.60;5.63;;;;;;;9.57;97.23;100715.94;5095136;28;20085;-73
2022/12/24 02:02:11;;;;;;;31.77;6.13;;;;;;;9.56;97.54;100717.72;5095130;28;20028;-73
2022/12/24 02:04:45;;;;;;;34.38;5.35;;;;;;;9.61;97.85;100723.03;5095112;28;20108;-72
2022/12/24 02:07:11;;;;;;;30.15;5.75;;;;;;;9.59;98.15;100730.03;5094936;28;20024;-71
2022/12/24 02:09:38;;;;;;;27.38;7.10;;;;;;;9.58;98.40;100737.06;5094881;28;20031;-72
2022/12/24 02:12:05;;;;;;;33.45;5.80;;;;;;;9.59;98.54;100736.19;5094854;28;20107;-73
2022/12/24 02:14:31;;;;;;;29.95;6.05;;;;;;;9.63;98.84;100739.75;5095162;28;20434;-72
2022/12/24 02:17:22;;;;;;;29.83;5.55;;;;;;;9.61;98.97;100737.09;5094997;28;20028;-72
2022/12/24 02:20:08;;;;;;;31.48;5.70;;;;;;;9.66;98.96;100747.72;5094709;28;20032;-72
2022/12/24 02:22:57;;;;;;;27.60;5.43;;;;;;;9.70;98.90;100750.41;5063218;28;20036;-72
2022/12/24 02:25:50;;;;;;;34.40;5.97;;;;;;;9.69;98.81;100746.00;5094642;28;20473;-72
2022/12/24 02:28:16;;;;;;;40.45;6.40;;;;;;;9.72;99.21;100745.16;5076611;28;20060;-73
2022/12/24 02:30:45;;;;;;;31.83;6.00;;;;;;;9.70;99.63;100745.13;5094605;28;20079;-72
2022/12/24 02:33:23;;;;;;;32.05;6.03;;;;;;;9.70;100.00;100753.06;5094724;28;20473;-72
2022/12/24 02:35:52;;;;;;;34.58;6.40;;;;;;;9.68;99.87;100746.00;5094573;28;20110;-72
2022/12/24 02:38:43;;;;;;;34.42;6.68;;;;;;;9.70;100.00;100747.78;5094303;28;20047;-72
2022/12/24 02:42:04;;;;;;;35.75;5.85;;;;;;;9.70;100.00;100750.41;5090396;28;20115;-72
2022/12/24 02:44:18;;;;;;;32.35;5.75;;;;;;;9.71;100.00;100753.94;5094195;28;20047;-72
2022/12/24 02:46:44;;;;;;;32.65;5.43;;;;;;;9.70;100.00;100750.41;5094143;28;20028;-72
2022/12/24 02:49:11;;;;;;;35.28;6.70;;;;;;;9.71;100.00;100751.28;5076359;28;20032;-72
2022/12/24 02:51:36;;;;;;;32.05;4.78;;;;;;;9.76;100.00;100758.44;5093258;28;20043;-72
2022/12/24 02:54:02;;;;;;;39.00;5.30;;;;;;;9.74;100.00;100770.69;5094202;28;20044;-72
2022/12/24 02:57:07;;;;;;;42.83;6.70;;;;;;;9.71;100.00;100749.53;5094080;28;20496;-72
2022/12/24 02:59:44;;;;;;;34.53;5.88;;;;;;;9.76;100.00;100755.78;5011916;28;20034;-72
2022/12/24 03:02:36;;;;;;;45.63;7.28;;;;;;;9.76;100.00;100760.16;5085823;28;20032;-72
2022/12/24 03:05:13;;;;;;;29.85;5.20;;;;;;;9.76;100.00;100758.44;5093826;28;20032;-72
2022/12/24 03:07:53;;;;;;;37.28;5.57;;;;;;;9.75;100.00;100756.63;5093932;28;20064;-72
2022/12/24 03:10:39;;;;;;;30.95;5.78;;;;;;;9.75;100.00;100761.03;5094011;28;20028;-72
2022/12/24 03:13:25;;;;;;;27.27;4.88;;;;;;;9.72;100.00;100759.25;5093688;28;20145;-73
2022/12/24 03:15:51;;;;;;;32.35;5.40;;;;;;;9.72;100.00;100766.25;5093723;28;20047;-73
2022/12/24 03:18:21;;;;;;;34.00;5.25;;;;;;;9.72;100.00;100766.25;5093433;28;20020;-75
2022/12/24 03:21:08;;;;;;;25.23;5.03;;;;;;;9.71;100.00;100767.13;5093880;28;20073;-76
2022/12/24 03:23:33;;;;;;;33.83;6.22;;;;;;;9.70;100.00;100765.38;5075566;28;20490;-72
2022/12/24 03:26:03;;;;;;;33.15;5.72;;;;;;;9.69;100.00;100761.84;5093589;28;20029;-72
2022/12/24 03:28:29;;;;;;;28.95;5.68;;;;;;;9.69;100.00;100764.47;5093601;28;20031;-73
2022/12/24 03:30:59;;;;;;;31.75;5.32;;;;;;;9.72;100.00;100766.25;5075327;28;20028;-72
2022/12/24 03:33:24;;;;;;;28.80;5.53;;;;;;;9.72;100.00;100768.88;5093580;28;20031;-72
2022/12/24 03:35:49;;;;;;;31.83;6.05;;;;;;;9.75;100.00;100772.47;5093386;28;20028;-73
2022/12/24 03:38:15;;;;;;;30.65;5.65;;;;;;;9.76;100.00;100775.97;5075491;28;20476;-72
2022/12/24 03:40:40;;;;;;;30.77;6.25;;;;;;;9.80;100.00;100772.50;5075228;28;20111;-72
2022/12/24 03:43:06;;;;;;;26.92;5.60;;;;;;;9.82;100.00;100780.47;5092948;28;20100;-72
2022/12/24 03:45:31;;;;;;;22.98;5.40;;;;;;;9.83;100.00;100785.75;5093512;28;20036;-72
2022/12/24 03:47:56;;;;;;;31.52;6.00;;;;;;;9.86;100.00;100783.16;5075093;28;20022;-73
2022/12/24 03:50:22;;;;;;;21.65;4.80;;;;;;;9.89;100.00;100795.50;5093272;28;20099;-73
2022/12/24 03:52:47;;;;;;;30.83;5.55;;;;;;;9.90;100.00;100790.25;5074842;28;20072;-73
2022/12/24 03:55:13;;;;;;;26.13;5.38;;;;;;;9.93;100.00;100787.63;5075019;28;20486;-72
2022/12/24 03:57:38;;;;;;;26.02;5.18;;;;;;;9.94;100.00;100786.78;5092840;28;20492;-73
2022/12/24 04:00:05;;;;;;;29.98;5.80;;;;;;;9.90;100.00;100784.97;5075172;28;20035;-72
2022/12/24 04:02:31;;;;;;;25.05;5.72;;;;;;;9.95;100.00;100796.47;5092605;28;20029;-73
2022/12/24 04:04:56;;;;;;;23.80;5.10;;;;;;;9.98;100.00;100795.63;5092333;28;20032;-73
2022/12/24 04:07:22;;;;;;;25.80;5.25;;;;;;;9.96;100.00;100785.03;5075049;28;20024;-72
2022/12/24 04:09:47;;;;;;;31.10;6.13;;;;;;;9.93;100.00;100787.63;5092879;28;20017;-72
2022/12/24 04:12:12;;;;;;;29.98;5.60;;;;;;;9.98;100.00;100799.16;5092711;28;20035;-73
2022/12/24 04:14:38;;;;;;;25.88;5.20;;;;;;;10.00;100.00;100788.59;5092835;28;20028;-72
2022/12/24 04:17:03;;;;;;;20.30;5.10;;;;;;;9.97;100.00;100796.47;5093038;28;20114;-73
2022/12/24 04:19:28;;;;;;;21.63;5.50;;;;;;;9.95;100.00;100791.19;5092717;28;20017;-73
2022/12/24 04:21:54;;;;;;;24.30;5.57;;;;;;;9.96;100.00;100802.63;5074908;28;20477;-72
2022/12/24 04:24:19;;;;;;;25.48;5.28;;;;;;;9.92;100.00;100801.72;5074745;28;20111;-72
2022/12/24 04:26:45;;;;;;;26.17;6.00;;;;;;;9.96;100.00;100811.44;5074537;28;20477;-72
2022/12/24 04:29:10;;;;;;;26.10;5.75;;;;;;;9.94;100.00;100810.53;5092632;28;20024;-72
2022/12/24 04:31:35;;;;;;;25.35;5.40;;;;;;;9.95;100.00;100807.03;5092712;28;20130;-72
2022/12/24 04:34:01;;;;;;;25.60;5.50;;;;;;;9.94;100.00;100810.53;5092829;28;20496;-72
2022/12/24 04:36:26;;;;;;;26.45;5.50;;;;;;;9.94;100.00;100818.47;5074416;28;20107;-72
2022/12/24 04:38:52;;;;;;;27.67;5.30;;;;;;;9.93;100.00;100807.88;5092688;28;20031;-72
2022/12/24 04:41:22;;;;;;;34.90;6.07;;;;;;;9.91;100.00;100812.25;5092340;28;20528;-72
2022/12/24 04:43:47;;;;;;;30.17;6.47;;;;;;;9.92;100.00;100809.63;5092427;28;20024;-72
2022/12/24 04:46:17;;;;;;;31.92;6.20;;;;;;;9.91;100.00;100826.34;5092562;28;20021;-72
2022/12/24 04:48:46;;;;;;;26.33;6.20;;;;;;;9.90;100.00;100821.94;5092420;28;20062;-72
2022/12/24 04:51:13;;;;;;;27.50;6.13;;;;;;;9.90;100.00;100826.31;5092493;28;20086;-72
2022/12/24 04:53:39;;;;;;;25.92;5.78;;;;;;;9.83;100.00;100820.06;5074422;28;20031;-72
2022/12/24 04:56:17;;;;;;;32.45;5.97;;;;;;;9.84;100.00;100821.84;5092310;28;20020;-72
2022/12/24 04:58:43;;;;;;;26.98;6.10;;;;;;;9.84;100.00;100832.38;5092489;28;20028;-72
2022/12/24 05:01:18;;;;;;;29.42;5.85;;;;;;;9.81;100.00;100829.72;5092395;28;20541;-73
2022/12/24 05:03:44;;;;;;;30.90;6.50;;;;;;;9.84;100.00;100829.75;5074437;28;20075;-72
2022/12/24 05:06:14;;;;;;;29.35;5.78;;;;;;;9.81;100.00;100831.47;5092309;28;20107;-72
2022/12/24 05:08:39;;;;;;;26.52;5.65;;;;;;;9.81;100.00;100840.28;5074154;28;20031;-72
2022/12/24 05:11:05;;;;;;;27.50;5.45;;;;;;;9.81;100.00;100844.66;5092358;28;20024;-72
2022/12/24 05:13:31;;;;;;;33.42;5.70;;;;;;;9.78;100.00;100841.13;5092279;28;20020;-72
2022/12/24 05:15:57;;;;;;;30.52;5.75;;;;;;;9.81;100.00;100848.22;5094812;28;20028;-72
2022/12/24 05:18:22;;;;;;;26.65;5.03;;;;;;;9.82;100.00;100843.81;5095909;28;20028;-72
2022/12/24 05:20:48;;;;;;;23.27;4.88;;;;;;;9.82;100.00;100849.09;5096058;28;20016;-72
2022/12/24 05:26:22;;;;;;;22.42;4.80;;;;;;;9.82;100.00;100838.53;5096303;28;20050;-72
2022/12/24 05:28:49;;;;;;;26.98;4.97;;;;;;;9.81;100.00;100829.72;5077676;28;20016;-72
2022/12/24 05:31:14;;;;;;;26.85;4.75;;;;;;;9.83;100.00;100827.09;5095822;28;20515;-72
2022/12/24 05:33:40;;;;;;;30.77;5.20;;;;;;;9.79;100.00;100840.25;5095564;28;20078;-72
2022/12/24 05:36:05;;;;;;;32.85;4.78;;;;;;;9.77;100.00;100826.16;5095336;28;20490;-72
2022/12/24 05:38:31;;;;;;;26.38;5.22;;;;;;;9.75;100.00;100834.91;5069088;28;20048;-72
2022/12/24 05:40:56;;;;;;;32.83;5.10;;;;;;;9.71;100.00;100827.81;5075447;28;20028;-72
2022/12/24 05:43:22;;;;;;;27.65;5.68;;;;;;;9.71;100.00;100835.72;5075034;28;20433;-72
2022/12/24 05:45:47;;;;;;;29.65;5.53;;;;;;;9.69;100.00;100856.81;5057352;28;20024;-72
2022/12/24 05:48:12;;;;;;;26.25;5.00;;;;;;;9.68;100.00;100851.53;5075217;28;20371;-72
2022/12/24 05:50:39;;;;;;;21.92;4.38;;;;;;;9.67;100.00;100855.00;5075208;28;20039;-71
2022/12/24 05:53:05;;;;;;;29.55;5.72;;;;;;;9.67;100.00;100865.56;5074887;28;20055;-72
2022/12/24 05:55:31;;;;;;;31.38;4.93;;;;;;;9.68;100.00;100870.88;5075357;28;20478;-71
2022/12/24 05:57:57;;;;;;;31.23;5.70;;;;;;;9.71;100.00;100876.19;5074816;28;20067;-72
2022/12/24 06:00:22;;;;;;;29.88;5.00;;;;;;;9.71;100.00;100875.31;5057242;28;20393;-72
2022/12/24 06:02:48;;;;;;;32.38;5.30;;;;;;;9.71;100.00;100873.56;5074723;28;20462;-72
2022/12/24 06:05:13;;;;;;;27.70;5.45;;;;;;;9.72;100.00;100879.72;5075002;28;20048;-72
2022/12/24 06:07:38;;;;;;;30.00;5.10;;;;;;;9.70;100.00;100884.97;5074739;28;20024;-72
2022/12/24 06:10:05;;;;;;;31.27;5.63;;;;;;;9.68;100.00;100892.00;5074841;28;20078;-73
2022/12/24 06:12:30;;;;;;;27.50;5.40;;;;;;;9.64;100.00;100890.19;5074464;28;20039;-72
2022/12/24 06:14:56;;;;;;;28.58;5.43;;;;;;;9.60;100.00;100877.81;5074880;28;20024;-71
2022/12/24 06:17:21;;;;;;;29.05;5.13;;;;;;;9.60;100.00;100885.72;5074538;28;20070;-72
2022/12/24 06:19:46;;;;;;;25.15;5.20;;;;;;;9.59;100.00;100883.91;5074467;28;20036;-72
2022/12/24 06:22:12;;;;;;;31.55;5.35;;;;;;;9.59;100.00;100889.19;5056621;28;20028;-72
2022/12/24 06:24:37;;;;;;;25.65;5.22;;;;;;;9.53;100.00;100881.19;5056575;28;20028;-72
2022/12/24 06:27:02;;;;;;;21.13;5.40;;;;;;;9.59;100.00;100885.66;5073962;28;20037;-72
2022/12/24 06:29:28;;;;;;;31.92;6.30;;;;;;;9.58;100.00;100891.81;5074331;28;20070;-71
2022/12/24 06:31:53;;;;;;;32.88;6.07;;;;;;;9.61;100.00;100890.13;5074457;28;20017;-72
2022/12/24 06:34:19;;;;;;;26.92;4.93;;;;;;;9.60;100.00;100898.03;5074309;28;20045;-72
2022/12/24 06:36:44;;;;;;;25.83;5.53;;;;;;;9.59;100.00;100902.38;5074227;28;20052;-72
2022/12/24 06:39:09;;;;;;;34.65;5.95;;;;;;;9.59;100.00;100912.06;5074284;28;20472;-71
2022/12/24 06:41:35;;;;;;;30.15;5.82;;;;;;;9.56;100.00;100912.91;5074128;28;20029;-71
2022/12/24 06:44:00;;;;;;;29.50;5.70;;;;;;;9.53;100.00;100913.72;5074197;28;20486;-72
2022/12/24 06:46:25;;;;;;;22.25;5.22;;;;;;;9.52;100.00;100913.72;5074081;28;20064;-72
2022/12/24 06:48:51;;;;;;;28.25;6.03;;;;;;;9.49;100.00;100914.53;5073919;28;20029;-72
2022/12/24 06:51:18;;;;;;;32.50;6.85;;;;;;;9.50;100.00;100918.06;5073737;28;20394;-72
2022/12/24 06:53:44;;;;;;;28.48;5.47;;;;;;;9.47;100.00;100918.03;5074023;28;20086;-72
2022/12/24 06:56:12;;;;;;;25.10;5.28;;;;;;;9.46;100.00;100932.97;5073952;28;20056;-72
2022/12/24 06:58:39;;;;;;;27.27;5.53;;;;;;;9.42;100.00;100928.53;5073908;28;20048;-73
2022/12/24 07:01:07;;;;;;;31.33;6.53;;;;;;;9.42;100.00;100922.31;5055806;28;20027;-72
2022/12/24 07:03:33;;;;;;;26.83;5.63;;;;;;;9.40;100.00;100932.88;5073518;28;20023;-72
2022/12/24 07:05:59;;;;;;;31.83;6.40;;;;;;;9.39;100.00;100933.72;5073776;28;20052;-72
2022/12/24 07:08:24;;;;;;;29.15;5.68;;;;;;;9.38;100.00;100929.31;5073710;28;20107;-72
2022/12/24 07:10:51;;;;;;;34.55;5.82;;;;;;;9.38;100.00;100933.69;5073736;28;20021;-72
2022/12/24 07:13:18;;;;;;;32.72;6.40;;;;;;;9.40;100.00;100938.13;5073376;28;20418;-72
2022/12/24 07:15:44;;;;;;;34.63;6.18;;;;;;;9.42;100.00;100938.16;5073508;28;20474;-72
2022/12/24 07:18:09;;;;;;;35.47;6.70;;;;;;;9.39;100.00;100946.91;5073466;28;20039;-72
2022/12/24 07:20:35;;;;;;;31.50;6.03;;;;;;;9.40;100.00;100951.31;5055724;28;20028;-72
2022/12/24 07:23:00;;;;;;;28.05;5.90;;;;;;;9.38;100.00;100941.59;5073046;28;20036;-72
2022/12/24 07:25:26;;;;;;;38.28;6.28;;;;;;;9.38;100.00;100945.16;5055452;28;20464;-72
2022/12/24 07:27:52;;;;;;;28.95;5.78;;;;;;;9.36;100.00;100946.84;5038757;28;20025;-72
2022/12/24 07:30:17;;;;;;;28.55;6.00;;;;;;;9.36;100.00;100949.50;5073347;28;20489;-72
2022/12/24 07:32:43;;;;;;;33.80;6.25;;;;;;;9.35;100.00;100960.03;5073053;28;20390;-72
2022/12/24 07:35:09;;;;;;;27.15;5.70;;;;;;;9.31;100.00;100952.91;5073147;28;20167;-72
2022/12/24 07:37:34;;;;;;;31.52;6.22;;;;;;;9.31;100.00;100966.09;5073065;28;20075;-72
2022/12/24 07:40:00;;;;;;;32.55;6.15;;;;;;;9.30;100.00;100965.22;5072263;28;20064;-72
2022/12/24 07:42:25;;;;;;;40.58;6.00;;;;;;;9.29;100.00;100976.59;5072918;28;20036;-72
2022/12/24 07:44:51;;;;;;;32.10;6.30;;;;;;;9.26;100.00;100980.09;5073149;28;20032;-72
2022/12/24 07:47:16;;;;;;;31.88;6.03;;;;;;;9.27;100.00;100980.97;5073026;28;20389;-71
2022/12/24 07:49:42;;;;;;;36.28;6.20;;;;;;;9.24;100.00;100978.28;5073046;28;20482;-72
2022/12/24 07:52:07;;;;;;;27.55;5.35;;;;;;;9.26;100.00;100985.38;5072543;28;20055;-72
2022/12/24 07:54:33;;;;;;;36.70;6.85;;;;;;;9.26;100.00;100985.38;5072828;28;20048;-72
2022/12/24 07:56:58;;;;;;;34.22;5.47;;;;;;;9.24;100.00;100992.34;5072804;28;20111;-72
2022/12/24 07:59:24;;;;;;;25.70;5.53;;;;;;;9.26;100.00;100997.66;5072895;28;20503;-72
2022/12/24 08:01:49;;;;;;;38.35;6.22;;;;;;;9.25;100.00;101003.81;5072608;28;20032;-72
2022/12/24 08:04:14;;;;;;;31.63;6.10;;;;;;;9.24;100.00;101013.44;5072781;28;20071;-71
2022/12/24 08:06:40;;;;;;;26.25;5.00;;;;;;;9.24;100.00;101013.44;5072849;28;20119;-72
2022/12/24 08:09:05;;;;;;;30.60;4.88;;;;;;;9.21;100.00;101023.94;5072774;28;20497;-72
2022/12/24 08:11:31;;;;;;;24.98;5.28;;;;;;;9.20;100.00;101027.44;5072646;28;20042;-72
2022/12/24 08:13:56;;;;;;;28.15;5.53;;;;;;;9.21;100.00;101021.31;5072571;28;20358;-72
2022/12/24 08:16:22;;;;;;;36.10;5.28;;;;;;;9.22;100.00;101031.00;5072503;28;20474;-72
2022/12/24 08:18:47;;;;;;;35.65;5.90;;;;;;;9.23;100.00;101045.94;5072690;28;20024;-73
2022/12/24 08:21:12;;;;;;;31.65;5.32;;;;;;;9.27;100.00;101042.50;5072749;28;20036;-72
2022/12/24 08:23:38;;;;;;;29.48;6.18;;;;;;;9.28;100.00;101043.41;5072621;28;20474;-72
2022/12/24 08:26:07;;;;;;;30.35;5.68;;;;;;;9.30;100.00;101049.59;5072586;28;20528;-72
2022/12/24 08:28:33;;;;;;;30.58;5.47;;;;;;;9.27;100.00;101042.50;5072510;28;20032;-72
2022/12/24 08:30:58;;;;;;;25.10;5.47;;;;;;;9.31;100.00;101058.41;5054510;28;20470;-72
2022/12/24 08:33:24;;;;;;;37.88;5.63;;;;;;;9.28;100.00;101051.31;5072491;28;20105;-72
2022/12/24 08:35:51;;;;;;;27.88;5.70;;;;;;;9.35;100.00;101065.50;5072517;28;20039;-73
2022/12/24 08:38:17;;;;;;;29.38;5.38;;;;;;;9.35;100.00;101057.59;5072430;28;20032;-72
2022/12/24 08:40:42;;;;;;;31.67;5.32;;;;;;;9.34;100.00;101062.00;5072425;28;20104;-72
2022/12/24 08:43:08;;;;;;;35.15;5.95;;;;;;;9.39;100.00;101057.69;5072390;28;20405;-71
2022/12/24 08:45:34;;;;;;;31.67;6.20;;;;;;;9.41;100.00;101066.50;5072142;28;20095;-72
2022/12/24 08:47:59;;;;;;;29.83;5.25;;;;;;;9.41;100.00;101058.59;5072279;28;20040;-72
2022/12/24 08:50:27;;;;;;;34.95;5.45;;;;;;;9.44;100.00;101068.31;5074006;28;20020;-72
2022/12/24 08:52:52;;;;;;;26.95;4.95;;;;;;;9.45;100.00;101070.09;5075922;28;20127;-72
2022/12/24 08:55:18;;;;;;;40.65;6.18;;;;;;;9.48;100.00;101078.97;5076398;28;20451;-71
2022/12/24 08:57:43;;;;;;;29.95;5.60;;;;;;;9.50;100.00;101078.97;5076138;28;20090;-72
2022/12/24 09:00:11;;;;;;;35.85;6.53;;;;;;;9.53;100.00;101086.94;5076001;28;20051;-72
2022/12/24 09:02:37;;;;;;;33.63;5.32;;;;;;;9.53;100.00;101082.56;5076042;28;20016;-70
2022/12/24 09:05:02;;;;;;;28.30;6.03;;;;;;;9.58;100.00;101092.31;5076052;28;20495;-69
2022/12/24 09:07:28;;;;;;;25.17;5.85;;;;;;;9.59;100.00;101094.97;5075822;28;20066;-70
2022/12/24 09:09:53;;;;;;;35.80;6.07;;;;;;;9.61;100.00;101092.38;5058105;28;20104;-71
2022/12/24 09:12:19;;;;;;;30.88;5.95;;;;;;;9.63;100.00;101103.84;5041332;28;20100;-70
2022/12/24 09:14:44;;;;;;;29.27;5.85;;;;;;;9.65;100.00;101108.28;5075635;28;20032;-69
2022/12/24 09:17:09;;;;;;;27.42;5.70;;;;;;;9.60;100.00;101093.25;5057765;28;20040;-70
2022/12/24 09:19:35;;;;;;;38.17;6.15;;;;;;;9.69;100.00;101103.97;5075820;28;20036;-71
2022/12/24 09:22:00;;;;;;;28.33;5.50;;;;;;;9.71;100.00;101113.66;5075692;28;20029;-71
2022/12/24 09:24:26;;;;;;;33.97;5.97;;;;;;;9.72;100.00;101118.13;5075554;28;20588;-70
2022/12/24 09:26:51;;;;;;;29.52;6.18;;;;;;;9.74;100.00;101126.03;5075712;28;20033;-70
2022/12/24 09:29:17;;;;;;;34.03;6.20;;;;;;;9.73;100.00;101140.09;5075385;28;20025;-70
2022/12/24 09:31:42;;;;;;;31.42;6.63;;;;;;;9.77;100.00;101144.59;5057793;28;20040;-71
2022/12/24 09:34:08;;;;;;;31.67;5.82;;;;;;;9.84;100.00;101143.81;5075838;28;20048;-70
2022/12/24 09:36:34;;;;;;;36.15;6.97;;;;;;;9.92;100.00;101144.84;5075307;28;20028;-70
2022/12/24 09:38:59;;;;;;;32.35;6.13;;;;;;;10.02;100.00;101148.53;5075452;28;20533;-69
2022/12/24 09:41:38;;;;;;;40.03;6.13;;;;;;;10.23;100.00;101156.81;5075221;28;20397;-71
2022/12/24 09:44:22;;;;;;;31.63;5.65;;;;;;;10.33;100.00;101151.75;5075297;28;20478;-70
2022/12/24 09:46:50;;;;;;;35.28;6.38;;;;;;;10.35;100.00;101150.03;5075220;28;20028;-70
2022/12/24 09:49:20;;;;;;;31.80;5.93;;;;;;;10.40;100.00;101161.53;5075161;28;20048;-70
2022/12/24 09:51:54;;;;;;;36.30;6.25;;;;;;;10.42;100.00;101160.72;5074996;28;20027;-72
2022/12/24 09:54:40;;;;;;;29.80;5.93;;;;;;;10.44;100.00;101166.03;5057375;28;20420;-73
2022/12/24 09:57:15;;;;;;;38.50;6.20;;;;;;;10.41;100.00;101164.22;5075061;28;20032;-71
2022/12/24 09:59:45;;;;;;;25.73;5.80;;;;;;;10.39;100.00;101175.63;5075072;28;20024;-72
2022/12/24 10:02:14;;;;;;;29.35;5.90;;;;;;;10.33;100.00;101168.50;5073824;28;20032;-72
2022/12/24 10:04:41;;;;;;;32.13;5.80;;;;;;;10.36;100.00;101180.84;5075169;28;20475;-71
2022/12/24 10:07:30;;;;;;;30.92;6.13;;;;;;;10.35;100.00;101187.88;5074830;28;20031;-71
2022/12/24 10:10:13;;;;;;;26.33;5.90;;;;;;;10.38;100.00;101185.31;5057144;28;20033;-71
2022/12/24 10:12:57;;;;;;;32.17;6.45;;;;;;;10.46;100.00;101193.38;5074680;28;20016;-71
2022/12/24 10:15:50;;;;;;;36.70;6.20;;;;;;;10.53;100.00;101182.94;5074735;28;20032;-72
2022/12/24 10:18:43;;;;;;;29.65;6.43;;;;;;;10.55;99.72;101196.16;5074995;28;20032;-72
2022/12/24 10:21:15;;;;;;;37.15;6.13;;;;;;;10.51;99.92;101184.66;5059597;28;20021;-72
2022/12/24 10:23:59;;;;;;;32.38;7.10;;;;;;;10.53;100.00;101184.66;5074454;28;20056;-72
2022/12/24 10:26:54;;;;;;;31.05;6.55;;;;;;;10.52;99.86;101180.25;5074697;28;20028;-72
2022/12/24 10:29:26;;;;;;;36.38;6.85;;;;;;;10.51;99.66;101176.72;5044529;28;20033;-72
2022/12/24 10:32:16;;;;;;;32.60;6.75;;;;;;;10.52;99.62;101183.78;5074551;28;20478;-72
2022/12/24 10:34:58;;;;;;;28.67;6.47;;;;;;;10.50;99.72;101174.06;5074368;28;20021;-71
2022/12/24 10:37:27;;;;;;;36.13;6.53;;;;;;;10.52;99.71;101180.25;5074637;28;20116;-71
2022/12/24 10:39:53;;;;;;;27.08;6.38;;;;;;;10.57;99.47;101181.19;5074373;28;20024;-71
2022/12/24 10:42:22;;;;;;;31.15;6.22;;;;;;;10.60;99.43;101191.84;5073725;28;20025;-69
2022/12/24 10:44:55;;;;;;;30.33;6.30;;;;;;;10.59;99.23;101198.00;5073950;28;20463;-72
2022/12/24 10:47:22;;;;;;;36.95;6.85;;;;;;;10.59;98.84;101194.47;5073977;28;20071;-72
2022/12/24 10:49:59;;;;;;;35.20;7.20;;;;;;;10.61;99.24;101193.59;5073926;28;20017;-71
2022/12/24 10:52:31;;;;;;;32.75;7.07;;;;;;;10.61;98.64;101196.25;5073860;28;20084;-72
2022/12/24 10:55:07;;;;;;;;;;;;;;;10.67;99.87;101188.44;5074258;28;20056;-71
2022/12/24 10:57:33;;;;;;;33.60;6.53;;;;;;;10.68;98.29;101184.91;5073830;28;19922;-71
2022/12/24 10:59:59;;;;;;;27.40;6.47;;;;;;;10.74;99.31;101182.34;5073841;28;20021;-71
2022/12/24 11:02:43;;;;;;;36.08;7.65;;;;;;;10.85;98.22;101186.94;5073785;28;20063;-70
2022/12/24 11:05:30;;;;;;;31.65;6.18;;;;;;;10.94;97.82;101193.25;5073520;28;20127;-71
2022/12/24 11:08:14;;;;;;;29.38;6.72;;;;;;;11.00;97.58;101179.22;5073984;28;20020;-71
2022/12/24 11:10:53;;;;;;;28.55;6.32;;;;;;;11.02;97.24;101199.53;5073828;28;20452;-71
2022/12/24 11:13:32;;;;;;;29.70;6.72;;;;;;;11.01;96.68;101192.47;5073123;28;20028;-71
2022/12/24 11:16:22;;;;;;;26.58;6.20;;;;;;;11.02;96.60;101203.94;5073913;28;20029;-71
2022/12/24 11:18:53;;;;;;;28.27;6.07;;;;;;;10.96;96.14;101196.81;5073413;28;20032;-71
2022/12/24 11:21:27;;;;;;;37.10;6.55;;;;;;;10.95;95.86;101194.13;5073330;28;20017;-71
2022/12/24 11:23:56;;;;;;;31.63;6.50;;;;;;;10.98;96.09;101199.47;5073345;28;20028;-71
2022/12/24 11:26:24;;;;;;;25.63;6.47;;;;;;;10.98;95.51;101187.13;5073246;28;20024;-71
2022/12/24 11:29:04;;;;;;;32.22;6.30;;;;;;;11.00;95.36;101195.97;5073316;28;20028;-71
2022/12/24 11:31:31;;;;;;;30.00;6.70;;;;;;;11.02;95.73;101207.47;5073282;28;20044;-71
2022/12/24 11:33:57;;;;;;;33.03;6.75;;;;;;;11.06;95.56;101199.59;5073330;28;20028;-71
2022/12/24 11:36:25;;;;;;;33.80;6.82;;;;;;;11.03;94.36;101211.00;5072835;28;20481;-71